Time;durP1;ratioP1;P1;durP2;ratioP2;P2;SDS_P1;SDS_P2;PMS_P1;PMS_P2;Temp;Humidity;BMP_temperature;BMP_pressure;BME280_temperature;BME280_humidity;BME280_pressure;Samples;Min_cycle;Max_cycle;Signal;HPM_P1;HPM_P2
2022/04/19 00:00:20;;;;;;;8.77;5.55;;;13.00;1.00;;;;;;4898019;29;20452;-90
2022/04/19 00:02:47;;;;;;;6.57;5.10;;;13.00;1.00;;;;;;4899904;29;20483;-89
2022/04/19 00:05:15;;;;;;;7.22;5.20;;;13.00;1.00;;;;;;4898748;29;20073;-89
2022/04/19 00:07:42;;;;;;;9.55;5.22;;;13.00;1.00;;;;;;4883137;29;20044;-89
2022/04/19 00:10:09;;;;;;;8.07;5.68;;;12.90;1.00;;;;;;4898578;29;20539;-89
2022/04/19 00:12:36;;;;;;;6.88;4.97;;;12.90;1.00;;;;;;4898505;29;20499;-88
2022/04/19 00:15:04;;;;;;;9.90;6.13;;;12.90;1.00;;;;;;4900385;29;20104;-90
2022/04/19 00:17:31;;;;;;;8.60;5.55;;;12.90;1.00;;;;;;4900243;29;20443;-89
2022/04/19 00:19:59;;;;;;;8.35;5.47;;;12.80;1.00;;;;;;4901935;29;20045;-89
2022/04/19 00:22:28;;;;;;;8.52;5.97;;;12.80;1.00;;;;;;4899957;29;20486;-89
2022/04/19 00:24:56;;;;;;;8.63;5.80;;;12.80;1.00;;;;;;4897335;29;20459;-88
2022/04/19 00:27:23;;;;;;;18.83;9.30;;;12.70;1.00;;;;;;4897328;29;20546;-89
2022/04/19 00:29:50;;;;;;;9.57;6.10;;;12.50;1.00;;;;;;4881838;29;20096;-89
2022/04/19 00:32:17;;;;;;;9.55;5.93;;;12.50;1.00;;;;;;4881837;29;20045;-90
2022/04/19 00:34:46;;;;;;;13.30;8.55;;;12.50;1.00;;;;;;4897405;29;20080;-89
2022/04/19 00:37:13;;;;;;;15.40;9.13;;;12.40;1.00;;;;;;4881855;29;20044;-88
2022/04/19 00:39:40;;;;;;;9.85;5.88;;;12.10;1.00;;;;;;4885163;29;20045;-90
2022/04/19 00:42:08;;;;;;;7.60;5.40;;;12.10;1.00;;;;;;4901577;29;20068;-90
2022/04/19 00:44:39;;;;;;;8.32;5.03;;;12.10;1.00;;;;;;4901529;29;20242;-89
2022/04/19 00:47:10;;;;;;;9.27;5.03;;;12.30;1.00;;;;;;4901744;29;20057;-89
2022/04/19 00:49:44;;;;;;;8.13;4.82;;;12.40;1.00;;;;;;4901992;29;20045;-89
2022/04/19 00:52:12;;;;;;;8.40;5.47;;;12.50;1.00;;;;;;4901333;29;20068;-89
2022/04/19 00:54:41;;;;;;;10.40;6.10;;;12.50;1.00;;;;;;4901670;29;20100;-89
2022/04/19 00:57:14;;;;;;;9.00;5.10;;;12.50;1.00;;;;;;4886000;29;20048;-89
2022/04/19 00:59:46;;;;;;;13.95;7.88;;;12.50;1.00;;;;;;4900994;29;20048;-89
2022/04/19 01:02:13;;;;;;;8.77;6.03;;;12.30;1.00;;;;;;4901111;29;20056;-89
2022/04/19 01:04:43;;;;;;;8.65;5.47;;;12.30;1.00;;;;;;4901720;29;20119;-88
2022/04/19 01:07:12;;;;;;;9.45;5.20;;;12.30;1.00;;;;;;4901024;29;20155;-92
2022/04/19 01:09:42;;;;;;;8.02;5.28;;;12.40;1.00;;;;;;4901057;29;20052;-88
2022/04/19 01:15:05;;;;;;;10.57;6.53;;;12.40;1.00;;;;;;4901262;29;20135;-90
2022/04/19 01:17:57;;;;;;;7.40;5.18;;;12.30;1.00;;;;;;4882849;29;20053;-90
2022/04/19 01:20:26;;;;;;;8.90;5.00;;;12.30;1.00;;;;;;4881756;29;20068;-89
2022/04/19 01:22:53;;;;;;;9.95;5.95;;;12.30;1.00;;;;;;4881698;29;20055;-88
2022/04/19 01:25:25;;;;;;;11.68;7.88;;;12.30;1.00;;;;;;4881878;29;20105;-90
2022/04/19 01:27:54;;;;;;;8.07;5.40;;;12.20;1.00;;;;;;4881388;29;20081;-89
2022/04/19 01:30:22;;;;;;;8.32;5.38;;;12.20;1.00;;;;;;4881129;29;20765;-89
2022/04/19 01:32:52;;;;;;;7.47;5.13;;;12.20;1.00;;;;;;4881639;29;20452;-91
2022/04/19 01:35:21;;;;;;;8.60;5.07;;;12.20;1.00;;;;;;4881442;29;20049;-90
2022/04/19 01:37:53;;;;;;;9.02;5.75;;;12.20;1.00;;;;;;4881526;29;20041;-90
2022/04/19 01:40:28;;;;;;;10.90;7.07;;;12.20;1.00;;;;;;4880898;29;20045;-89
2022/04/19 01:43:01;;;;;;;9.07;5.43;;;12.20;1.00;;;;;;4881255;29;20590;-89
2022/04/19 01:45:38;;;;;;;9.55;5.53;;;12.10;1.00;;;;;;4886842;29;20048;-89
2022/04/19 01:48:10;;;;;;;;;;;12.10;1.00;;;;;;4900246;29;20411;-89
2022/04/19 01:50:39;;;;;;;8.30;5.13;;;12.10;1.00;;;;;;4898565;29;19924;-89
2022/04/19 01:53:07;;;;;;;8.80;5.20;;;12.10;1.00;;;;;;4899901;29;20079;-89
2022/04/19 01:55:35;;;;;;;7.30;5.25;;;12.10;1.00;;;;;;4882239;29;20068;-89
2022/04/19 01:58:10;;;;;;;7.75;4.60;;;12.10;1.00;;;;;;4897029;29;20106;-88
2022/04/19 02:00:41;;;;;;;9.80;5.18;;;12.00;1.00;;;;;;4881785;29;20068;-89
2022/04/19 02:03:12;;;;;;;7.82;5.07;;;12.00;1.00;;;;;;4881950;29;20052;-89
2022/04/19 02:05:40;;;;;;;8.23;5.53;;;12.00;1.00;;;;;;4881830;29;20049;-88
2022/04/19 02:08:07;;;;;;;7.78;5.20;;;12.00;1.00;;;;;;4896755;29;20057;-89
2022/04/19 02:10:38;;;;;;;7.93;5.35;;;12.00;1.00;;;;;;4881411;29;20057;-89
2022/04/19 02:13:05;;;;;;;7.13;5.22;;;11.90;1.00;;;;;;4880687;29;20037;-89
2022/04/19 02:15:35;;;;;;;7.82;5.32;;;11.90;1.00;;;;;;4885904;29;20048;-89
2022/04/19 02:18:13;;;;;;;8.73;5.40;;;11.90;1.00;;;;;;4901495;29;20463;-90
2022/04/19 02:20:40;;;;;;;7.60;5.45;;;11.90;1.00;;;;;;4900033;29;20049;-88
2022/04/19 02:23:07;;;;;;;9.77;5.95;;;11.80;1.00;;;;;;4887622;29;20053;-89
2022/04/19 02:25:34;;;;;;;7.93;5.53;;;11.80;1.00;;;;;;4901820;29;20048;-88
2022/04/19 02:28:07;;;;;;;8.95;5.93;;;11.80;1.00;;;;;;4899399;29;20422;-88
2022/04/19 02:30:37;;;;;;;8.93;5.65;;;11.80;1.00;;;;;;4898886;29;20053;-89
2022/04/19 02:33:10;;;;;;;9.48;5.72;;;11.80;1.00;;;;;;4884419;29;20049;-90
2022/04/19 02:35:38;;;;;;;8.63;6.05;;;11.80;1.00;;;;;;4899515;29;20072;-90
2022/04/19 02:38:06;;;;;;;10.23;5.85;;;11.80;1.00;;;;;;4899672;29;20689;-88
2022/04/19 02:40:40;;;;;;;6.88;5.13;;;11.70;1.00;;;;;;4899327;29;20041;-89
2022/04/19 02:43:08;;;;;;;8.73;5.78;;;11.70;1.00;;;;;;4899376;29;20052;-89
2022/04/19 02:45:36;;;;;;;8.90;6.07;;;11.70;1.00;;;;;;4899442;29;20045;-89
2022/04/19 02:48:07;;;;;;;7.72;5.38;;;11.70;1.00;;;;;;4899694;29;20054;-88
2022/04/19 02:50:42;;;;;;;9.43;5.45;;;11.60;1.00;;;;;;4898527;29;20048;-89
2022/04/19 02:53:10;;;;;;;9.73;5.97;;;11.60;1.00;;;;;;4898888;29;20415;-90
2022/04/19 02:55:38;;;;;;;9.23;5.85;;;11.60;1.00;;;;;;4898565;29;20055;-89
2022/04/19 02:58:09;;;;;;;7.68;6.60;;;11.60;1.00;;;;;;4883416;29;20097;-89
2022/04/19 03:00:37;;;;;;;10.43;5.78;;;11.60;1.00;;;;;;4898393;29;20045;-89
2022/04/19 03:03:05;;;;;;;8.45;6.47;;;11.50;1.00;;;;;;4898381;29;20108;-89
2022/04/19 03:05:37;;;;;;;13.13;5.70;;;11.50;1.00;;;;;;4898031;29;20415;-89
2022/04/19 03:08:06;;;;;;;8.73;5.40;;;11.40;1.00;;;;;;4898593;29;20079;-89
2022/04/19 03:10:33;;;;;;;10.73;6.55;;;11.50;1.00;;;;;;4897839;29;20051;-90
2022/04/19 03:13:01;;;;;;;9.10;6.18;;;11.40;1.00;;;;;;4898296;29;20059;-90
2022/04/19 03:15:34;;;;;;;8.88;6.20;;;11.40;1.00;;;;;;4897882;29;20040;-88
2022/04/19 03:18:02;;;;;;;8.82;6.13;;;11.40;1.00;;;;;;4897613;29;20053;-89
2022/04/19 03:20:33;;;;;;;10.48;5.80;;;11.40;1.00;;;;;;4883016;29;20144;-90
2022/04/19 03:28:48;;;;;;;8.13;6.05;;;11.30;1.00;;;;;;4898426;29;20052;-89
2022/04/19 03:31:16;;;;;;;9.50;6.15;;;11.30;1.00;;;;;;4897531;29;20052;-89
2022/04/19 03:33:48;;;;;;;8.00;5.63;;;11.20;1.00;;;;;;4882434;29;20052;-89
2022/04/19 03:36:20;;;;;;;10.02;5.93;;;11.20;1.00;;;;;;4898223;29;20048;-89
2022/04/19 03:38:48;;;;;;;7.28;5.28;;;11.20;1.00;;;;;;4898791;29;20067;-89
2022/04/19 03:41:16;;;;;;;7.80;5.20;;;11.20;1.00;;;;;;4898051;29;20104;-89
2022/04/19 03:43:48;;;;;;;6.70;4.80;;;11.20;1.00;;;;;;4898307;29;20402;-89
2022/04/19 03:46:15;;;;;;;9.73;5.35;;;11.10;1.00;;;;;;4883241;29;20072;-89
2022/04/19 03:48:42;;;;;;;8.30;5.35;;;11.10;1.00;;;;;;4898092;29;20145;-89
2022/04/19 03:51:11;;;;;;;6.53;4.07;;;11.10;1.00;;;;;;4897371;29;20044;-89
2022/04/19 03:53:38;;;;;;;9.15;5.32;;;11.10;1.00;;;;;;4899337;29;20047;-89
2022/04/19 03:56:12;;;;;;;9.75;5.80;;;11.10;1.00;;;;;;4897881;29;20068;-88
2022/04/19 03:58:39;;;;;;;10.77;5.47;;;11.10;1.00;;;;;;4881990;29;20070;-89
2022/04/19 04:01:06;;;;;;;9.48;4.97;;;11.10;1.00;;;;;;4897139;29;20522;-89
2022/04/19 04:03:34;;;;;;;8.40;4.63;;;11.10;1.00;;;;;;4898053;29;20528;-89
2022/04/19 04:06:02;;;;;;;7.43;4.60;;;11.10;1.00;;;;;;4898320;29;20075;-91
2022/04/19 04:08:31;;;;;;;6.75;4.82;;;11.00;1.00;;;;;;4898321;29;20051;-89
2022/04/19 04:11:04;;;;;;;11.90;5.18;;;11.00;1.00;;;;;;4916637;29;20391;-90
2022/04/19 04:14:08;;;;;;;7.70;5.22;;;11.00;1.00;;;;;;4917087;29;20083;-94
2022/04/19 04:29:09;;;;;;;6.28;4.35;;;10.90;1.00;;;;;;4913054;29;20061;-92
2022/04/19 04:37:36;;;;;;;;;;;;;;;;;;;;;
2022/04/19 04:41:53;;;;;;;5.72;4.07;;;10.80;1.00;;;;;;4856040;29;20053;-90
2022/04/19 04:45:00;;;;;;;7.30;3.88;;;10.80;1.00;;;;;;4858855;29;20076;-90
2022/04/19 04:50:19;;;;;;;10.13;5.65;;;10.70;1.00;;;;;;4812925;29;20436;-90
2022/04/19 04:52:53;;;;;;;8.05;5.20;;;10.70;1.00;;;;;;4811239;29;20500;-91
2022/04/19 04:55:24;;;;;;;6.47;4.88;;;10.70;1.00;;;;;;4878558;29;20048;-90
2022/04/19 04:57:58;;;;;;;10.77;4.60;;;10.70;1.00;;;;;;4878678;29;20406;-90
2022/04/19 05:00:32;;;;;;;6.53;4.80;;;10.60;1.00;;;;;;4864070;29;20041;-90
2022/04/19 05:03:05;;;;;;;8.07;4.28;;;10.60;1.00;;;;;;4878954;29;20045;-90
2022/04/19 05:05:33;;;;;;;8.70;4.78;;;10.60;1.00;;;;;;4878914;29;20049;-89
2022/04/19 05:08:18;;;;;;;9.20;4.90;;;10.60;1.00;;;;;;4888831;29;20053;-90
2022/04/19 05:10:50;;;;;;;6.32;4.38;;;10.60;1.00;;;;;;4879261;29;20052;-90
2022/04/19 05:13:24;;;;;;;;;;;10.60;1.00;;;;;;4879149;29;20140;-90
2022/04/19 05:15:52;;;;;;;7.57;4.75;;;10.60;1.00;;;;;;4884347;29;19927;-90
2022/04/19 05:18:24;;;;;;;7.43;3.97;;;10.60;1.00;;;;;;4882053;29;20048;-89
2022/04/19 05:20:54;;;;;;;6.87;4.70;;;10.60;1.00;;;;;;4896878;29;20041;-90
2022/04/19 05:23:26;;;;;;;7.05;4.78;;;10.60;1.00;;;;;;4897483;29;20052;-90
2022/04/19 05:25:56;;;;;;;6.43;4.22;;;10.50;1.00;;;;;;4883917;29;20048;-90
2022/04/19 05:28:32;;;;;;;6.07;3.97;;;10.60;1.00;;;;;;4900784;29;20052;-90
2022/04/19 05:31:06;;;;;;;8.70;4.88;;;10.60;1.00;;;;;;4900308;29;20096;-89
2022/04/19 05:33:43;;;;;;;6.95;3.75;;;10.60;1.00;;;;;;4901591;29;20040;-91
2022/04/19 05:36:23;;;;;;;11.10;5.18;;;10.50;1.00;;;;;;4900505;29;20048;-91
2022/04/19 05:38:54;;;;;;;6.53;4.18;;;10.60;1.00;;;;;;4900669;29;20410;-89
2022/04/19 05:41:23;;;;;;;7.90;4.28;;;10.60;1.00;;;;;;4900315;29;20135;-91
2022/04/19 05:43:52;;;;;;;7.07;4.05;;;10.50;1.00;;;;;;4900418;29;20562;-90
2022/04/19 05:46:22;;;;;;;5.93;4.35;;;10.50;1.00;;;;;;4900012;29;20538;-90
2022/04/19 05:48:52;;;;;;;8.43;4.45;;;10.50;1.00;;;;;;4885502;29;20506;-90
2022/04/19 05:51:28;;;;;;;9.60;4.60;;;10.50;1.00;;;;;;4900672;29;20048;-89
2022/04/19 05:53:57;;;;;;;6.47;4.75;;;10.50;1.00;;;;;;4900285;29;20084;-90
2022/04/19 05:56:24;;;;;;;7.47;3.80;;;10.50;1.00;;;;;;4900718;29;20068;-90
2022/04/19 05:58:52;;;;;;;7.97;4.35;;;10.50;1.00;;;;;;4900915;29;20068;-89
2022/04/19 06:01:20;;;;;;;10.98;7.28;;;10.50;1.00;;;;;;4900454;29;20048;-91
2022/04/19 06:06:35;;;;;;;12.90;7.50;;;10.50;99.90;;;;;;4900723;29;20080;-90
2022/04/19 06:09:20;;;;;;;10.60;7.22;;;10.50;99.90;;;;;;4900148;29;20075;-90
2022/04/19 06:11:54;;;;;;;12.35;7.75;;;10.50;99.90;;;;;;4901639;29;20051;-89
2022/04/19 06:14:28;;;;;;;12.43;7.80;;;10.60;99.90;;;;;;4900745;29;20064;-89
2022/04/19 06:16:56;;;;;;;12.75;7.82;;;10.60;99.90;;;;;;4900370;29;20045;-90
2022/04/19 06:19:25;;;;;;;14.45;8.55;;;10.70;99.90;;;;;;4900091;29;20049;-91
2022/04/19 06:21:52;;;;;;;15.40;8.80;;;10.80;99.90;;;;;;4900222;29;20044;-90
2022/04/19 06:24:26;;;;;;;14.57;7.95;;;10.70;99.90;;;;;;4902039;29;20379;-91
2022/04/19 06:27:08;;;;;;;8.80;5.40;;;10.80;99.90;;;;;;4899658;29;20067;-91
2022/04/19 06:29:50;;;;;;;13.50;8.40;;;10.80;99.90;;;;;;4901239;29;20048;-91
2022/04/19 06:32:17;;;;;;;17.08;9.30;;;10.90;99.90;;;;;;4899662;29;20143;-90
2022/04/19 06:34:50;;;;;;;13.82;8.32;;;11.00;99.90;;;;;;4899658;29;20048;-90
2022/04/19 06:37:26;;;;;;;14.55;8.57;;;11.10;99.90;;;;;;4898833;29;20044;-90
2022/04/19 06:40:01;;;;;;;15.52;9.00;;;11.10;99.90;;;;;;4884048;29;20045;-89
2022/04/19 06:42:32;;;;;;;16.45;8.55;;;11.10;99.90;;;;;;4899792;29;20055;-90
2022/04/19 06:45:28;;;;;;;12.95;7.55;;;11.20;99.90;;;;;;4898524;29;20189;-89
2022/04/19 06:48:02;;;;;;;15.95;8.85;;;11.20;99.90;;;;;;4898393;29;20068;-90
2022/04/19 06:50:33;;;;;;;11.98;8.23;;;11.30;99.90;;;;;;4898165;29;20052;-90
2022/04/19 06:53:19;;;;;;;16.13;9.95;;;11.30;99.90;;;;;;4898175;29;20049;-90
2022/04/19 06:56:05;;;;;;;13.75;9.23;;;11.30;99.90;;;;;;4899034;29;20052;-91
2022/04/19 06:58:33;;;;;;;12.23;7.32;;;11.40;99.90;;;;;;4898984;29;20434;-91
2022/04/19 07:01:02;;;;;;;16.48;8.15;;;11.40;99.90;;;;;;4883251;29;20040;-90
2022/04/19 07:03:37;;;;;;;8.07;5.15;;;11.40;99.90;;;;;;4899091;29;20479;-91
2022/04/19 07:06:31;;;;;;;14.75;7.75;;;11.40;99.90;;;;;;4897740;29;20071;-90
2022/04/19 07:08:58;;;;;;;10.63;6.90;;;11.50;99.90;;;;;;4898022;29;20070;-89
2022/04/19 07:11:25;;;;;;;13.82;8.50;;;11.50;99.90;;;;;;4882602;29;20049;-90
2022/04/19 07:13:56;;;;;;;14.55;8.90;;;11.50;99.90;;;;;;4898043;29;20045;-90
2022/04/19 07:16:44;;;;;;;16.77;8.82;;;11.60;99.90;;;;;;4898913;29;20133;-91
2022/04/19 07:19:26;;;;;;;14.45;8.75;;;11.80;99.90;;;;;;4899188;29;20044;-90
2022/04/19 07:27:40;;;;;;;12.98;7.55;;;11.90;99.90;;;;;;4885025;29;20048;-90
2022/04/19 07:30:13;;;;;;;13.80;8.50;;;11.90;99.90;;;;;;4897979;29;20071;-88
2022/04/19 07:32:41;;;;;;;11.13;7.43;;;11.90;99.90;;;;;;4881787;29;20048;-89
2022/04/19 07:35:26;;;;;;;12.35;8.30;;;11.90;99.90;;;;;;4897633;29;20045;-90
2022/04/19 07:37:53;;;;;;;15.43;8.02;;;12.00;99.90;;;;;;4897637;29;20065;-90
2022/04/19 07:40:36;;;;;;;15.18;7.88;;;12.20;99.90;;;;;;4897223;29;20136;-90
2022/04/19 07:43:11;;;;;;;17.45;9.70;;;12.10;99.90;;;;;;4898327;29;20052;-89
2022/04/19 07:45:41;;;;;;;18.75;8.27;;;12.20;99.90;;;;;;4897366;29;20048;-91
2022/04/19 07:48:12;;;;;;;17.95;7.70;;;12.30;99.90;;;;;;4896414;29;20491;-91
2022/04/19 07:50:39;;;;;;;13.43;7.75;;;12.50;99.90;;;;;;4881422;29;20052;-90
2022/04/19 07:53:06;;;;;;;16.15;9.10;;;12.50;99.90;;;;;;4897654;29;20093;-90
2022/04/19 07:55:37;;;;;;;10.10;6.57;;;12.60;99.90;;;;;;4897406;29;20052;-90
2022/04/19 07:58:04;;;;;;;13.15;7.95;;;12.50;99.90;;;;;;4899330;29;20047;-90
2022/04/19 08:00:33;;;;;;;12.35;7.88;;;12.50;99.90;;;;;;4897583;29;20517;-90
2022/04/19 08:03:00;;;;;;;14.15;7.45;;;12.70;99.90;;;;;;4882208;29;20053;-89
2022/04/19 08:05:28;;;;;;;14.00;7.82;;;13.00;99.90;;;;;;4897112;29;20139;-90
2022/04/19 08:08:00;;;;;;;13.80;8.35;;;13.00;99.90;;;;;;4898873;29;20055;-90
2022/04/19 08:10:27;;;;;;;18.10;8.27;;;13.20;99.90;;;;;;4882165;29;20623;-90
2022/04/19 08:12:55;;;;;;;12.52;7.10;;;13.20;99.90;;;;;;4897885;29;20529;-90
2022/04/19 08:15:24;;;;;;;16.52;8.05;;;13.10;99.90;;;;;;4897555;29;20049;-89
2022/04/19 08:17:51;;;;;;;13.05;8.35;;;13.30;95.50;;;;;;4897280;29;20135;-90
2022/04/19 08:20:21;;;;;;;15.35;7.35;;;13.50;91.40;;;;;;4897012;29;20048;-89
2022/04/19 08:22:52;;;;;;;14.07;8.73;;;13.60;58.30;;;;;;4897558;29;20575;-90
2022/04/19 08:25:25;;;;;;;14.32;8.55;;;13.80;26.20;;;;;;4898381;29;20049;-89
2022/04/19 08:27:52;;;;;;;12.23;7.35;;;13.90;1.10;;;;;;4898458;29;20048;-90
2022/04/19 08:30:20;;;;;;;14.15;8.07;;;13.80;1.00;;;;;;4898473;29;20098;-90
2022/04/19 08:32:49;;;;;;;15.10;7.93;;;13.90;1.00;;;;;;4898319;29;20388;-90
2022/04/19 08:35:17;;;;;;;15.07;8.57;;;14.10;1.00;;;;;;4898840;29;20071;-90
2022/04/19 08:37:45;;;;;;;15.80;7.07;;;14.30;1.00;;;;;;4897500;29;20056;-90
2022/04/19 08:40:14;;;;;;;13.02;7.15;;;14.30;1.00;;;;;;4897153;29;20048;-90
2022/04/19 08:42:46;;;;;;;14.40;7.22;;;14.40;1.00;;;;;;4881889;29;20077;-89
2022/04/19 08:45:20;;;;;;;11.85;6.10;;;14.60;1.00;;;;;;4897374;29;20058;-89
2022/04/19 08:47:48;;;;;;;13.80;7.75;;;14.60;1.00;;;;;;4883120;29;20052;-90
2022/04/19 08:50:18;;;;;;;16.95;8.40;;;14.60;1.00;;;;;;4897836;29;20396;-89
2022/04/19 08:57:29;;;;;;;14.00;7.90;;;14.60;1.00;;;;;;4898050;29;20055;-89
2022/04/19 08:58:22;;;;;;;17.75;9.05;;;14.60;1.00;;;;;;4897617;29;20096;-89
2022/04/19 09:00:49;;;;;;;14.93;7.85;;;14.70;1.00;;;;;;4901314;29;20045;-89
2022/04/19 09:03:16;;;;;;;13.90;8.35;;;14.70;1.00;;;;;;4902742;29;20079;-90
2022/04/19 09:05:52;;;;;;;13.43;8.57;;;14.70;1.00;;;;;;4901111;29;20048;-89
2022/04/19 09:08:20;;;;;;;14.10;8.20;;;14.70;1.00;;;;;;4901054;29;20090;-91
2022/04/19 09:10:52;;;;;;;15.15;7.38;;;14.70;1.00;;;;;;4900909;29;20044;-89
2022/04/19 09:13:21;;;;;;;14.55;8.23;;;14.90;1.00;;;;;;4901269;29;20088;-90
2022/04/19 09:15:54;;;;;;;16.17;8.55;;;14.90;1.00;;;;;;4901036;29;20044;-89
2022/04/19 09:18:29;;;;;;;16.08;7.80;;;14.90;1.00;;;;;;4900441;29;20048;-89
2022/04/19 09:20:58;;;;;;;13.68;7.72;;;14.80;1.00;;;;;;4900435;29;20119;-91
2022/04/19 09:23:26;;;;;;;17.50;7.68;;;15.00;1.00;;;;;;4900189;29;20100;-91
2022/04/19 09:26:02;;;;;;;14.23;7.15;;;15.00;1.00;;;;;;4900712;29;20502;-89
2022/04/19 09:28:29;;;;;;;13.02;7.28;;;15.10;1.00;;;;;;4900752;29;20055;-90
2022/04/19 09:30:58;;;;;;;14.40;8.05;;;15.00;1.00;;;;;;4885235;29;20052;-90
2022/04/19 09:33:27;;;;;;;14.85;8.40;;;15.00;1.00;;;;;;4900611;29;20044;-91
2022/04/19 09:36:04;;;;;;;14.45;8.50;;;15.00;1.00;;;;;;4900109;29;20072;-90
2022/04/19 09:38:38;;;;;;;20.13;8.82;;;15.20;1.00;;;;;;4899999;29;20040;-90
2022/04/19 09:41:07;;;;;;;13.68;8.68;;;15.30;1.00;;;;;;4899443;29;20041;-89
2022/04/19 09:44:11;;;;;;;15.93;8.95;;;15.30;1.00;;;;;;4901026;29;20052;-90
2022/04/19 09:46:41;;;;;;;15.23;8.32;;;15.30;1.00;;;;;;4899933;29;20499;-89
2022/04/19 09:49:09;;;;;;;13.80;8.75;;;15.30;1.00;;;;;;4883763;29;20108;-90
2022/04/19 09:51:39;;;;;;;14.10;7.03;;;15.50;1.00;;;;;;4901068;29;20064;-90
2022/04/19 09:54:21;;;;;;;16.63;7.07;;;15.50;1.00;;;;;;4899692;29;20077;-91
2022/04/19 09:56:49;;;;;;;17.27;8.52;;;15.70;1.00;;;;;;4899812;29;20430;-90
2022/04/19 09:59:24;;;;;;;15.52;9.30;;;15.60;1.00;;;;;;4900716;29;20495;-90
2022/04/19 10:10:15;;;;;;;15.57;9.20;;;15.40;1.00;;;;;;4898209;29;20049;-89
2022/04/19 10:12:44;;;;;;;15.40;8.90;;;15.60;1.00;;;;;;4900869;29;20053;-89
2022/04/19 10:15:13;;;;;;;14.23;8.45;;;15.50;1.00;;;;;;4900032;29;20491;-90
2022/04/19 10:17:41;;;;;;;15.45;8.40;;;15.50;1.00;;;;;;4880733;29;20101;-90
2022/04/19 10:20:12;;;;;;;19.08;7.97;;;15.50;1.00;;;;;;4881482;29;20045;-89
2022/04/19 10:22:47;;;;;;;14.75;8.20;;;15.40;1.00;;;;;;4880358;29;20052;-89
2022/04/19 10:25:15;;;;;;;14.32;7.40;;;15.50;1.00;;;;;;4881240;29;20049;-90
2022/04/19 10:27:44;;;;;;;14.35;8.13;;;15.40;1.00;;;;;;4882373;29;20078;-91
2022/04/19 10:30:19;;;;;;;13.90;8.02;;;15.40;1.00;;;;;;4881345;29;20128;-90
2022/04/19 10:32:52;;;;;;;14.60;8.80;;;15.70;1.00;;;;;;4881607;29;20104;-90
2022/04/19 10:35:25;;;;;;;19.08;9.35;;;15.80;1.00;;;;;;4880923;29;20053;-90
2022/04/19 10:38:18;;;;;;;15.95;9.38;;;15.90;1.00;;;;;;4881288;29;20131;-90
2022/04/19 10:40:53;;;;;;;15.40;8.70;;;15.90;1.00;;;;;;4865785;29;20049;-89
2022/04/19 10:43:22;;;;;;;16.77;7.90;;;16.00;1.00;;;;;;4881001;29;20053;-90
2022/04/19 10:45:52;;;;;;;16.48;9.18;;;16.10;1.00;;;;;;4884911;29;20040;-89
2022/04/19 10:48:20;;;;;;;14.05;8.75;;;16.00;1.00;;;;;;4899092;29;20045;-90
2022/04/19 10:50:51;;;;;;;16.83;9.60;;;16.10;1.00;;;;;;4899010;29;20529;-89
2022/04/19 10:53:33;;;;;;;17.70;9.05;;;16.20;1.00;;;;;;4899138;29;20075;-90
2022/04/19 10:56:09;;;;;;;17.88;9.40;;;16.30;1.00;;;;;;4900443;29;20115;-90
2022/04/19 10:58:44;;;;;;;17.33;9.27;;;16.20;1.00;;;;;;4900251;29;20415;-89
2022/04/19 11:01:38;;;;;;;18.65;9.80;;;16.30;1.00;;;;;;4898305;29;20068;-90
2022/04/19 11:04:38;;;;;;;15.30;8.23;;;16.20;1.00;;;;;;4898317;29;20063;-91
2022/04/19 11:07:46;;;;;;;15.63;9.15;;;16.70;1.00;;;;;;4883587;29;20563;-91
2022/04/19 11:10:39;;;;;;;16.08;7.70;;;16.60;1.00;;;;;;4898598;29;20044;-91
2022/04/19 11:13:16;;;;;;;18.60;9.30;;;16.70;1.00;;;;;;4898709;29;20073;-90
2022/04/19 11:16:04;;;;;;;17.65;9.00;;;16.90;1.00;;;;;;4900028;29;20100;-89
2022/04/19 11:18:54;;;;;;;15.10;8.88;;;16.70;1.00;;;;;;4899404;29;20595;-89
2022/04/19 11:21:51;;;;;;;14.93;8.05;;;16.90;1.00;;;;;;4898257;29;20395;-89
2022/04/19 11:25:06;;;;;;;16.55;9.90;;;16.70;1.00;;;;;;4898461;29;20063;-89
2022/04/19 11:28:08;;;;;;;15.57;8.75;;;16.60;1.00;;;;;;4899312;29;20517;-89
2022/04/19 11:30:46;;;;;;;16.67;8.73;;;16.80;1.00;;;;;;4898967;29;20060;-90
2022/04/19 11:33:23;;;;;;;16.55;8.90;;;17.00;1.00;;;;;;4882577;29;20059;-89
2022/04/19 11:36:09;;;;;;;15.23;8.32;;;17.10;1.00;;;;;;4897967;29;20041;-89
2022/04/19 11:38:49;;;;;;;17.17;10.25;;;17.40;1.00;;;;;;4897878;29;20040;-90
2022/04/19 11:47:22;;;;;;;16.48;9.57;;;17.30;1.00;;;;;;4898028;29;20060;-90
2022/04/19 11:49:55;;;;;;;14.85;8.73;;;17.40;1.00;;;;;;4897584;29;20049;-90
2022/04/19 11:52:29;;;;;;;15.80;8.80;;;17.50;1.00;;;;;;4881987;29;20419;-90
2022/04/19 11:55:15;;;;;;;13.73;8.07;;;17.40;1.00;;;;;;4897944;29;20060;-89
2022/04/19 11:57:44;;;;;;;15.98;9.20;;;17.50;1.00;;;;;;4899222;29;20043;-90
2022/04/19 12:00:24;;;;;;;16.42;9.32;;;17.30;1.00;;;;;;4898273;29;20044;-90
2022/04/19 12:03:20;;;;;;;15.75;8.32;;;17.60;1.00;;;;;;4897689;29;20036;-90
2022/04/19 12:06:06;;;;;;;17.98;9.48;;;17.80;1.00;;;;;;4897811;29;20055;-90
2022/04/19 12:08:50;;;;;;;19.20;9.88;;;17.70;1.00;;;;;;4899136;29;20105;-90
2022/04/19 12:11:27;;;;;;;17.10;8.95;;;17.20;1.00;;;;;;4897720;29;20495;-90
2022/04/19 12:14:00;;;;;;;15.48;9.13;;;17.30;1.00;;;;;;4897539;29;20485;-91
2022/04/19 12:16:34;;;;;;;16.38;8.70;;;17.50;1.00;;;;;;4897649;29;20590;-90
2022/04/19 12:19:14;;;;;;;16.50;9.05;;;17.40;1.00;;;;;;4883217;29;20096;-90
2022/04/19 12:22:23;;;;;;;15.10;7.68;;;17.70;1.00;;;;;;4898922;29;20185;-90
2022/04/19 12:25:06;;;;;;;15.45;8.95;;;17.90;1.00;;;;;;4898383;29;20092;-89
2022/04/19 12:27:51;;;;;;;12.43;5.95;;;18.00;1.00;;;;;;4899461;29;20055;-90
2022/04/19 12:30:28;;;;;;;11.65;6.65;;;18.40;1.00;;;;;;4883322;29;20499;-90
2022/04/19 12:33:10;;;;;;;15.40;8.32;;;18.30;1.00;;;;;;4898406;29;20049;-90
2022/04/19 12:35:56;;;;;;;15.23;7.72;;;18.00;1.00;;;;;;4901196;29;20051;-89
2022/04/19 12:38:38;;;;;;;13.13;7.00;;;17.70;1.00;;;;;;4887722;29;20109;-90
2022/04/19 12:41:19;;;;;;;15.93;6.43;;;17.90;1.00;;;;;;4886048;29;20053;-90
2022/04/19 12:44:10;;;;;;;13.45;7.18;;;17.30;1.00;;;;;;4902560;29;20044;-90
2022/04/19 12:46:48;;;;;;;12.98;6.05;;;17.40;1.00;;;;;;4887802;29;20087;-89
2022/04/19 12:49:44;;;;;;;12.13;5.95;;;18.00;1.00;;;;;;4902257;29;20068;-90
2022/04/19 12:52:20;;;;;;;16.10;6.72;;;18.20;1.00;;;;;;4902648;29;20044;-90
2022/04/19 12:54:59;;;;;;;11.48;5.40;;;17.90;1.00;;;;;;4902231;29;20041;-89
2022/04/19 12:57:42;;;;;;;9.85;6.05;;;18.30;1.00;;;;;;4872894;29;20052;-90
2022/04/19 13:00:27;;;;;;;13.95;5.57;;;18.00;1.00;;;;;;4901000;29;20448;-89
2022/04/19 13:03:08;;;;;;;12.75;5.63;;;18.00;1.00;;;;;;4886119;29;20900;-90
2022/04/19 13:12:20;;;;;;;12.63;6.78;;;17.80;1.00;;;;;;4901328;29;20041;-90
2022/04/19 13:14:56;;;;;;;10.90;5.55;;;17.50;1.00;;;;;;4901013;29;20047;-90
2022/04/19 13:17:48;;;;;;;13.50;6.63;;;17.90;1.00;;;;;;4868520;29;20049;-89
2022/04/19 13:20:30;;;;;;;13.50;6.60;;;17.80;1.00;;;;;;4881420;29;20101;-89
2022/04/19 13:23:14;;;;;;;13.93;5.50;;;17.80;1.00;;;;;;4882255;29;20399;-90
2022/04/19 13:25:51;;;;;;;12.60;5.82;;;18.00;1.00;;;;;;4868581;29;20140;-90
2022/04/19 13:28:26;;;;;;;9.02;4.90;;;18.10;1.00;;;;;;4881495;29;20053;-90
2022/04/19 13:30:55;;;;;;;9.70;4.47;;;18.30;1.00;;;;;;4881761;29;20381;-90
2022/04/19 13:33:26;;;;;;;7.20;3.83;;;18.50;1.00;;;;;;4881474;29;20101;-89
2022/04/19 13:35:58;;;;;;;4.80;2.65;;;18.20;1.00;;;;;;4882375;29;20101;-89
2022/04/19 13:38:32;;;;;;;3.95;2.13;;;18.90;1.00;;;;;;4882089;29;20053;-89
2022/04/19 13:41:03;;;;;;;4.72;2.40;;;18.40;1.00;;;;;;4881960;29;20053;-90
2022/04/19 13:43:33;;;;;;;6.65;2.97;;;18.30;1.00;;;;;;4881749;29;20048;-91
2022/04/19 13:46:05;;;;;;;6.80;2.95;;;18.40;1.00;;;;;;4886798;29;20063;-91
2022/04/19 13:48:36;;;;;;;5.80;2.40;;;18.80;1.00;;;;;;4900487;29;20104;-90
2022/04/19 13:51:09;;;;;;;4.30;2.40;;;18.80;1.00;;;;;;4897165;29;20120;-90
2022/04/19 13:53:44;;;;;;;4.32;2.30;;;19.30;1.00;;;;;;4899537;29;20111;-91
2022/04/19 14:00:35;;;;;;;5.78;1.88;;;18.80;1.00;;;;;;4899555;29;20056;-94
2022/04/19 14:36:52;;;;;;;2.50;1.65;;;18.90;1.00;;;;;;4912635;29;20048;-89
2022/04/19 14:39:19;;;;;;;3.58;1.83;;;18.70;1.00;;;;;;4898470;29;20475;-90
2022/04/19 15:07:55;;;;;;;3.60;1.65;;;18.80;1.00;;;;;;4949217;23;20060;-93
2022/04/19 15:19:24;;;;;;;5.13;2.00;;;18.20;1.00;;;;;;4829269;29;20134;-89
2022/04/19 15:49:18;;;;;;;4.18;2.00;;;19.00;1.00;;;;;;4860169;29;20053;-90
2022/04/19 15:51:45;;;;;;;6.40;3.10;;;18.60;1.00;;;;;;4845136;29;20056;-89
2022/04/19 15:54:12;;;;;;;3.97;2.50;;;19.10;1.00;;;;;;4844847;29;20499;-89
2022/04/19 15:56:39;;;;;;;3.75;1.77;;;19.60;1.00;;;;;;4844787;29;20508;-91
2022/04/19 15:59:07;;;;;;;9.73;3.00;;;19.80;1.00;;;;;;4859886;29;20053;-89
2022/04/19 16:01:35;;;;;;;6.35;2.60;;;19.30;1.00;;;;;;4860331;29;20109;-90
2022/04/19 16:04:02;;;;;;;6.70;2.45;;;19.50;1.00;;;;;;4860183;29;20206;-89
2022/04/19 16:06:29;;;;;;;8.90;3.75;;;19.40;1.00;;;;;;4861244;29;20053;-88